Time;durP1;ratioP1;P1;durP2;ratioP2;P2;SDS_P1;SDS_P2;PMS_P1;PMS_P2;Temp;Humidity;BMP_temperature;BMP_pressure;BME280_temperature;BME280_humidity;BME280_pressure;Samples;Min_cycle;Max_cycle;Signal;HPM_P1;HPM_P2
2022/12/06 00:01:10;;;;;;;5.15;3.35;;;6.30;60.20;;;;;;5015546;28;20041;-74
2022/12/06 00:03:36;;;;;;;5.72;3.20;;;6.20;60.20;;;;;;5018732;28;20353;-74
2022/12/06 00:06:08;;;;;;;4.65;2.90;;;6.20;60.30;;;;;;5018573;28;20037;-74
2022/12/06 00:08:34;;;;;;;5.57;3.22;;;6.20;60.20;;;;;;5023787;28;20037;-74
2022/12/06 00:11:09;;;;;;;4.82;3.40;;;6.30;60.00;;;;;;5022995;28;20506;-74
2022/12/06 00:13:36;;;;;;;6.57;3.60;;;6.20;60.00;;;;;;5022235;28;20476;-74
2022/12/06 00:16:08;;;;;;;5.32;3.20;;;6.20;59.90;;;;;;5023276;28;20034;-74
2022/12/06 00:18:35;;;;;;;5.45;3.15;;;6.20;60.00;;;;;;5023128;28;20036;-74
2022/12/06 00:21:15;;;;;;;5.07;3.55;;;6.20;60.00;;;;;;5023934;28;20120;-75
2022/12/06 00:23:46;;;;;;;5.95;3.28;;;6.20;60.10;;;;;;5024744;28;20488;-75
2022/12/06 00:26:13;;;;;;;4.30;2.83;;;6.20;60.00;;;;;;5022242;28;20057;-74
2022/12/06 00:28:39;;;;;;;6.18;3.20;;;6.20;60.00;;;;;;5006313;28;20037;-75
2022/12/06 00:31:17;;;;;;;4.10;2.90;;;6.20;60.00;;;;;;5021974;28;20084;-74
2022/12/06 00:33:43;;;;;;;4.13;3.13;;;6.20;60.40;;;;;;5023911;28;20038;-74
2022/12/06 00:36:16;;;;;;;4.65;3.25;;;6.20;60.10;;;;;;5023575;28;20099;-74
2022/12/06 00:38:42;;;;;;;4.93;3.58;;;6.30;60.20;;;;;;5021874;28;20404;-73
2022/12/06 00:41:13;;;;;;;5.53;3.65;;;6.20;60.20;;;;;;5024578;28;20496;-74
2022/12/06 00:43:39;;;;;;;6.25;3.22;;;6.20;60.20;;;;;;5024161;28;20042;-73
2022/12/06 00:46:08;;;;;;;6.07;3.58;;;6.20;60.30;;;;;;5023112;28;20132;-73
2022/12/06 00:48:34;;;;;;;5.43;3.50;;;6.30;60.40;;;;;;5021900;28;20136;-73
2022/12/06 00:51:00;;;;;;;5.45;3.60;;;6.20;60.50;;;;;;5021840;28;20068;-74
2022/12/06 00:53:26;;;;;;;4.63;3.28;;;6.30;60.50;;;;;;5021366;28;20052;-73
2022/12/06 00:55:54;;;;;;;5.45;3.47;;;6.20;60.10;;;;;;5021276;28;20034;-75
2022/12/06 00:58:20;;;;;;;5.03;3.22;;;6.20;60.10;;;;;;5021880;28;20053;-72
2022/12/06 01:00:46;;;;;;;4.47;3.00;;;6.20;60.20;;;;;;5021052;28;20123;-73
2022/12/06 01:03:12;;;;;;;7.50;3.50;;;6.30;60.20;;;;;;5021371;28;20591;-74
2022/12/06 01:05:46;;;;;;;5.45;3.50;;;6.20;60.00;;;;;;5020456;28;20447;-74
2022/12/06 01:08:12;;;;;;;5.05;2.90;;;6.20;60.10;;;;;;5023569;28;20030;-74
2022/12/06 01:10:39;;;;;;;6.10;3.42;;;6.20;60.10;;;;;;5022714;28;20561;-72
2022/12/06 01:13:05;;;;;;;5.25;2.97;;;6.20;60.00;;;;;;5025928;28;20519;-74
2022/12/06 01:15:34;;;;;;;8.00;3.55;;;6.20;60.10;;;;;;5021776;28;21348;-74
2022/12/06 01:17:59;;;;;;;8.50;3.72;;;6.20;60.00;;;;;;5035864;28;20038;-74
2022/12/06 01:20:25;;;;;;;5.30;3.30;;;6.20;60.10;;;;;;5020244;28;20060;-75
2022/12/06 01:22:51;;;;;;;5.97;3.30;;;6.20;60.20;;;;;;5018760;28;20558;-74
2022/12/06 01:25:17;;;;;;;5.13;3.40;;;6.20;60.20;;;;;;5022784;28;20120;-75
2022/12/06 01:27:43;;;;;;;5.75;3.40;;;6.20;59.90;;;;;;5020302;28;20069;-75
2022/12/06 01:30:10;;;;;;;5.07;3.20;;;6.20;59.80;;;;;;5021951;28;20052;-74
2022/12/06 01:32:36;;;;;;;4.20;3.17;;;6.20;59.90;;;;;;5021669;28;20462;-74
2022/12/06 01:35:02;;;;;;;6.30;3.10;;;6.20;59.90;;;;;;5005789;28;20128;-75
2022/12/06 01:37:28;;;;;;;3.83;3.13;;;6.20;59.80;;;;;;5020914;28;20033;-75
2022/12/06 01:39:54;;;;;;;5.70;3.55;;;6.20;60.00;;;;;;5022868;28;20044;-74
2022/12/06 01:42:23;;;;;;;4.85;3.13;;;6.20;59.90;;;;;;5020114;28;20045;-74
2022/12/06 01:44:52;;;;;;;5.55;3.30;;;6.20;59.90;;;;;;5022342;28;20033;-75
2022/12/06 01:47:26;;;;;;;5.70;3.10;;;6.20;60.00;;;;;;5022800;28;20034;-75
2022/12/06 01:49:57;;;;;;;5.78;3.70;;;6.20;59.90;;;;;;5020831;28;20084;-75
2022/12/06 01:52:28;;;;;;;4.35;2.55;;;6.20;59.90;;;;;;5024227;28;20053;-75
2022/12/06 01:54:55;;;;;;;4.63;2.85;;;6.20;59.80;;;;;;5036867;28;20503;-74
2022/12/06 01:57:22;;;;;;;4.63;2.80;;;6.20;59.70;;;;;;5020810;28;20484;-74
2022/12/06 01:59:48;;;;;;;5.43;2.90;;;6.20;59.90;;;;;;5021222;28;20052;-74
2022/12/06 02:02:14;;;;;;;4.65;3.17;;;6.20;60.00;;;;;;5018960;28;20045;-74
2022/12/06 02:04:40;;;;;;;3.67;2.70;;;6.20;60.00;;;;;;5019677;28;20068;-75
2022/12/06 02:07:07;;;;;;;4.90;3.53;;;6.20;60.00;;;;;;5020913;28;20089;-75
2022/12/06 02:09:35;;;;;;;5.30;3.05;;;6.20;60.00;;;;;;5019990;28;20436;-75
2022/12/06 02:12:00;;;;;;;4.47;3.05;;;6.20;60.00;;;;;;5020668;28;20604;-75
2022/12/06 02:14:31;;;;;;;4.63;3.13;;;6.20;59.90;;;;;;5021159;28;20041;-74
2022/12/06 02:17:06;;;;;;;6.20;3.47;;;6.20;59.80;;;;;;5020261;28;20553;-75
2022/12/06 02:20:09;;;;;;;4.75;3.17;;;6.20;59.90;;;;;;5021205;28;20160;-75
2022/12/06 02:22:59;;;;;;;6.53;3.40;;;6.10;59.90;;;;;;5035675;28;20485;-74
2022/12/06 02:25:27;;;;;;;5.53;2.80;;;6.10;59.80;;;;;;5036942;28;20128;-74
2022/12/06 02:28:35;;;;;;;4.57;2.92;;;6.10;59.70;;;;;;5037058;28;20448;-74
2022/12/06 02:31:04;;;;;;;4.82;3.28;;;6.10;59.90;;;;;;4980199;28;20597;-74
2022/12/06 02:33:38;;;;;;;4.53;3.20;;;6.20;59.80;;;;;;4962313;28;20036;-74
2022/12/06 02:36:07;;;;;;;6.80;3.75;;;6.20;59.90;;;;;;4963621;28;20042;-74
2022/12/06 02:38:42;;;;;;;8.15;3.08;;;6.20;59.70;;;;;;4977978;28;20042;-74
2022/12/06 02:41:19;;;;;;;5.45;3.10;;;6.10;59.70;;;;;;4981085;28;20038;-74
2022/12/06 02:43:53;;;;;;;6.22;3.47;;;6.10;59.60;;;;;;4979386;28;20422;-74
2022/12/06 02:46:21;;;;;;;4.50;3.10;;;6.10;59.90;;;;;;4979481;28;20073;-74
2022/12/06 02:48:49;;;;;;;4.43;3.00;;;6.10;60.00;;;;;;4979318;28;20050;-74
2022/12/06 02:51:16;;;;;;;5.38;3.45;;;6.10;59.90;;;;;;4962303;28;20042;-74
2022/12/06 02:53:49;;;;;;;5.00;2.97;;;6.10;59.80;;;;;;4978795;28;20030;-74
2022/12/06 02:56:16;;;;;;;5.57;3.28;;;6.10;59.80;;;;;;4980318;28;20172;-74
2022/12/06 02:58:42;;;;;;;4.00;2.97;;;6.10;59.80;;;;;;4979749;28;20070;-74
2022/12/06 03:01:27;;;;;;;5.28;3.47;;;6.20;59.90;;;;;;4978546;28;20097;-74
2022/12/06 03:04:30;;;;;;;3.95;2.80;;;6.10;59.80;;;;;;4979003;28;20122;-74
2022/12/06 03:07:12;;;;;;;5.15;3.33;;;6.10;59.80;;;;;;4972582;28;20069;-74
2022/12/06 03:09:56;;;;;;;4.95;3.42;;;6.20;59.80;;;;;;5021668;28;20042;-76
2022/12/06 03:12:21;;;;;;;4.38;3.10;;;6.10;60.00;;;;;;5035674;28;20041;-75
2022/12/06 03:14:57;;;;;;;4.38;2.83;;;6.10;59.80;;;;;;5018591;28;20083;-75
2022/12/06 03:17:38;;;;;;;4.93;3.35;;;6.20;60.10;;;;;;5022950;28;20030;-75
2022/12/06 03:20:17;;;;;;;4.97;3.00;;;6.10;59.90;;;;;;5020648;28;20980;-75
2022/12/06 03:22:49;;;;;;;5.95;3.83;;;6.20;59.90;;;;;;5020759;28;20034;-75
2022/12/06 03:25:15;;;;;;;4.75;3.10;;;6.10;59.90;;;;;;5019446;28;20040;-75
2022/12/06 03:27:43;;;;;;;5.18;3.42;;;6.10;59.90;;;;;;5021917;28;20069;-75
2022/12/06 03:30:12;;;;;;;4.60;2.75;;;6.10;59.90;;;;;;5020490;28;20044;-75
2022/12/06 03:32:42;;;;;;;4.90;3.38;;;6.10;59.70;;;;;;5018760;28;20657;-75
2022/12/06 03:35:10;;;;;;;5.70;3.30;;;6.10;59.70;;;;;;5021415;28;20460;-75
2022/12/06 03:37:41;;;;;;;4.68;3.00;;;6.10;59.70;;;;;;5020274;28;20424;-75
2022/12/06 03:40:15;;;;;;;6.43;3.70;;;6.10;59.50;;;;;;5018559;28;20034;-75
2022/12/06 03:42:41;;;;;;;4.82;3.35;;;6.10;59.50;;;;;;5023139;28;20040;-74
2022/12/06 03:45:11;;;;;;;5.45;3.42;;;6.10;59.60;;;;;;5024331;28;20041;-74
2022/12/06 03:48:08;;;;;;;6.82;3.38;;;6.10;59.50;;;;;;5022725;28;20075;-74
2022/12/06 03:50:42;;;;;;;5.90;3.95;;;6.10;59.60;;;;;;5022995;28;20026;-74
2022/12/06 03:53:08;;;;;;;4.82;3.22;;;6.10;59.70;;;;;;5026718;28;20025;-74
2022/12/06 03:55:35;;;;;;;4.22;3.33;;;6.10;59.50;;;;;;5020670;28;20073;-74
2022/12/06 03:58:01;;;;;;;5.45;3.25;;;6.10;59.60;;;;;;5025291;28;20415;-74
2022/12/06 04:00:27;;;;;;;5.53;3.03;;;6.10;59.70;;;;;;5022756;28;20636;-74
2022/12/06 04:02:53;;;;;;;4.30;3.13;;;6.20;59.90;;;;;;5022932;28;20124;-74
2022/12/06 04:05:19;;;;;;;5.18;3.22;;;6.10;59.90;;;;;;5023760;28;20029;-73
2022/12/06 04:07:44;;;;;;;7.07;2.85;;;6.10;59.90;;;;;;5023787;28;20409;-73
2022/12/06 04:10:11;;;;;;;3.85;2.88;;;6.20;60.00;;;;;;5022471;28;20126;-74
2022/12/06 04:15:21;;;;;;;4.43;3.00;;;6.20;59.80;;;;;;5006394;28;20045;-73
2022/12/06 04:23:02;;;;;;;4.18;3.05;;;6.20;59.80;;;;;;5023614;28;20045;-73
2022/12/06 04:23:19;;;;;;;4.07;2.88;;;6.20;59.90;;;;;;5023166;28;20500;-73
2022/12/06 04:25:45;;;;;;;4.65;2.88;;;6.20;59.90;;;;;;5022295;28;20072;-74
2022/12/06 04:39:09;;;;;;;3.78;3.13;;;6.20;59.90;;;;;;5022535;28;20488;-74
2022/12/06 04:44:20;;;;;;;4.35;3.20;;;6.20;59.60;;;;;;5022196;28;20369;-75
2022/12/06 04:46:46;;;;;;;5.75;3.20;;;6.20;59.70;;;;;;5020810;28;20064;-74
2022/12/06 04:49:12;;;;;;;4.70;2.97;;;6.10;59.80;;;;;;5023323;28;20088;-74
2022/12/06 04:51:38;;;;;;;6.10;3.05;;;6.20;59.70;;;;;;5021311;28;20423;-74
2022/12/06 04:54:04;;;;;;;4.45;3.00;;;6.20;59.80;;;;;;5020255;28;20050;-74
2022/12/06 04:56:30;;;;;;;4.65;3.22;;;6.20;59.70;;;;;;5022847;28;20032;-75
2022/12/06 04:58:56;;;;;;;3.47;2.60;;;6.20;59.70;;;;;;5021852;28;20083;-74
2022/12/06 05:01:22;;;;;;;5.72;3.63;;;6.20;59.70;;;;;;5022612;28;20060;-74
2022/12/06 05:03:48;;;;;;;4.82;3.33;;;6.20;59.70;;;;;;5021735;28;20044;-73
2022/12/06 05:06:14;;;;;;;5.05;3.20;;;6.20;59.80;;;;;;5019778;28;20038;-73
2022/12/06 05:08:40;;;;;;;4.95;2.95;;;6.20;60.50;;;;;;5021908;28;20037;-73
2022/12/06 05:11:06;;;;;;;4.18;3.17;;;6.20;60.00;;;;;;5020138;28;20095;-73
2022/12/06 05:13:32;;;;;;;5.40;2.97;;;6.20;60.10;;;;;;5007942;28;20420;-73
2022/12/06 05:16:03;;;;;;;4.75;3.28;;;6.20;60.00;;;;;;5022068;28;20033;-73
2022/12/06 05:18:29;;;;;;;7.60;3.50;;;6.20;59.90;;;;;;5020255;28;20025;-74
2022/12/06 05:21:12;;;;;;;3.78;2.80;;;6.20;60.00;;;;;;5021162;28;20140;-75
2022/12/06 05:23:38;;;;;;;5.25;3.05;;;6.20;60.00;;;;;;5020786;28;20060;-75
2022/12/06 05:26:07;;;;;;;6.43;3.10;;;6.20;60.30;;;;;;5022459;28;20061;-74
2022/12/06 05:28:33;;;;;;;5.97;3.20;;;6.20;60.30;;;;;;5024282;28;20041;-75
2022/12/06 05:30:59;;;;;;;5.28;3.15;;;6.20;60.10;;;;;;5022410;28;20400;-74
2022/12/06 05:33:26;;;;;;;4.88;3.22;;;6.20;60.20;;;;;;5022979;28;20033;-75
2022/12/06 05:35:52;;;;;;;4.95;3.30;;;6.20;60.00;;;;;;5021939;28;22076;-74
2022/12/06 05:38:19;;;;;;;6.72;4.05;;;6.20;60.20;;;;;;5021946;28;20124;-74
2022/12/06 05:40:46;;;;;;;5.97;3.50;;;6.20;60.00;;;;;;5023747;28;20037;-74
2022/12/06 05:43:12;;;;;;;7.57;4.30;;;6.20;60.10;;;;;;5021643;28;20072;-73
2022/12/06 05:45:39;;;;;;;6.95;4.13;;;6.20;60.10;;;;;;5020118;28;20353;-74
2022/12/06 05:48:05;;;;;;;6.53;4.00;;;6.20;59.90;;;;;;5021132;28;20140;-74
2022/12/06 05:50:32;;;;;;;6.43;3.95;;;6.20;60.00;;;;;;5022222;28;20186;-74
2022/12/06 05:52:59;;;;;;;7.57;4.10;;;6.20;60.00;;;;;;5019813;28;20033;-75
2022/12/06 05:55:26;;;;;;;5.63;3.75;;;6.20;59.90;;;;;;5021511;28;20042;-75
2022/12/06 05:57:53;;;;;;;6.78;3.83;;;6.20;60.00;;;;;;5022075;28;20086;-75
2022/12/06 06:00:19;;;;;;;6.57;3.63;;;6.20;60.00;;;;;;5024049;28;20098;-76
2022/12/06 06:02:46;;;;;;;5.55;3.28;;;6.20;59.90;;;;;;5021721;28;20034;-77
2022/12/06 06:05:13;;;;;;;8.68;4.20;;;6.30;59.90;;;;;;5021373;28;20059;-76
2022/12/06 06:07:39;;;;;;;5.60;3.70;;;6.20;59.70;;;;;;5022573;28;20079;-76
2022/12/06 06:10:06;;;;;;;8.10;3.63;;;6.20;59.60;;;;;;5017569;28;20045;-76
2022/12/06 06:12:32;;;;;;;5.85;3.97;;;6.30;59.40;;;;;;5021451;28;20087;-75
2022/12/06 06:14:57;;;;;;;5.85;3.78;;;6.30;59.40;;;;;;5022900;28;20038;-73
2022/12/06 06:17:24;;;;;;;5.93;3.85;;;6.30;59.90;;;;;;5008506;28;20041;-76
2022/12/06 06:19:50;;;;;;;8.02;4.05;;;6.30;59.70;;;;;;5017871;28;20132;-75
2022/12/06 06:22:17;;;;;;;6.50;3.50;;;6.30;59.70;;;;;;5022862;28;20038;-75
2022/12/06 06:24:44;;;;;;;5.47;3.40;;;6.30;59.60;;;;;;5020500;28;20084;-75
2022/12/06 06:27:10;;;;;;;5.55;3.30;;;6.30;59.70;;;;;;5020971;28;20045;-76
2022/12/06 06:29:36;;;;;;;6.78;3.75;;;6.30;59.60;;;;;;5020981;28;20044;-75
2022/12/06 06:32:02;;;;;;;6.57;3.55;;;6.30;59.60;;;;;;5019971;28;20022;-75
2022/12/06 06:34:28;;;;;;;6.20;3.95;;;6.30;59.60;;;;;;5019112;28;20083;-75
2022/12/06 06:36:54;;;;;;;4.85;3.63;;;6.40;60.40;;;;;;5019758;28;20061;-75
2022/12/06 06:39:20;;;;;;;5.60;3.15;;;6.40;59.60;;;;;;5018015;28;20535;-75
2022/12/06 06:41:46;;;;;;;6.10;3.75;;;6.40;59.60;;;;;;5021156;28;20033;-75
2022/12/06 06:44:12;;;;;;;9.32;3.60;;;6.40;59.40;;;;;;5021775;28;20548;-74
2022/12/06 06:46:38;;;;;;;14.45;3.85;;;6.40;59.30;;;;;;5022101;28;20060;-74
2022/12/06 06:49:04;;;;;;;5.28;3.58;;;6.40;59.20;;;;;;5020220;28;20417;-75
2022/12/06 06:51:31;;;;;;;5.43;3.50;;;6.50;59.00;;;;;;5017779;28;20041;-75
2022/12/06 06:53:58;;;;;;;5.40;3.58;;;6.40;58.90;;;;;;5021906;28;20099;-75
2022/12/06 06:56:24;;;;;;;8.10;3.30;;;6.50;58.80;;;;;;5019376;28;20026;-75
2022/12/06 06:58:50;;;;;;;5.72;3.67;;;6.50;58.70;;;;;;5020641;28;20038;-75
2022/12/06 07:01:22;;;;;;;8.80;4.10;;;6.50;58.60;;;;;;5020873;28;20052;-75
2022/12/06 07:03:50;;;;;;;7.35;3.65;;;6.50;58.60;;;;;;5020572;28;20696;-75
2022/12/06 07:06:17;;;;;;;5.70;3.67;;;6.50;58.40;;;;;;5019482;28;20044;-74
2022/12/06 07:08:43;;;;;;;4.75;3.22;;;6.50;58.40;;;;;;5001228;28;20137;-76
2022/12/06 07:11:11;;;;;;;5.05;3.60;;;6.60;58.40;;;;;;5019375;28;20029;-75
2022/12/06 07:13:38;;;;;;;8.60;3.67;;;6.50;58.30;;;;;;5006200;28;20033;-75
2022/12/06 07:16:06;;;;;;;6.22;3.80;;;6.60;58.40;;;;;;5020313;28;20073;-75
2022/12/06 07:18:32;;;;;;;9.05;4.32;;;6.60;58.10;;;;;;5020070;28;21918;-75
2022/12/06 07:21:02;;;;;;;5.78;3.70;;;6.60;58.10;;;;;;5020592;28;20369;-75
2022/12/06 07:23:29;;;;;;;5.47;3.95;;;6.60;58.10;;;;;;5018807;28;20492;-75
2022/12/06 07:26:01;;;;;;;5.95;3.70;;;6.60;58.10;;;;;;5026505;28;20053;-76
2022/12/06 07:28:27;;;;;;;5.90;3.40;;;6.70;58.10;;;;;;5029123;28;20396;-75
2022/12/06 07:30:53;;;;;;;4.50;3.55;;;6.70;58.10;;;;;;5024683;28;20095;-75
2022/12/06 07:33:19;;;;;;;5.22;3.83;;;6.70;58.20;;;;;;5028090;28;20124;-75
2022/12/06 07:35:51;;;;;;;7.53;4.22;;;6.70;58.30;;;;;;5024933;28;20136;-76
2022/12/06 07:38:17;;;;;;;5.78;3.80;;;6.70;58.20;;;;;;5029180;28;20033;-71
2022/12/06 07:40:43;;;;;;;7.28;3.70;;;6.80;58.40;;;;;;5027998;28;20029;-71
2022/12/06 07:45:54;;;;;;;8.55;4.18;;;7.00;65.80;;;;;;5010625;28;20041;-72
2022/12/06 07:48:20;;;;;;;7.43;3.80;;;7.30;65.50;;;;;;5026527;28;20057;-72
2022/12/06 07:50:46;;;;;;;6.47;4.22;;;7.40;65.10;;;;;;5029137;28;20072;-72
2022/12/06 07:53:12;;;;;;;5.28;3.35;;;7.50;64.10;;;;;;5025539;28;20489;-77
2022/12/06 07:55:38;;;;;;;6.25;3.00;;;7.70;64.70;;;;;;5024796;28;20048;-77
2022/12/06 07:58:04;;;;;;;13.43;3.38;;;7.80;64.30;;;;;;5018794;28;20530;-77
2022/12/06 08:00:30;;;;;;;5.43;3.08;;;7.80;63.90;;;;;;5027996;28;20034;-77
2022/12/06 08:02:56;;;;;;;5.25;3.55;;;7.80;62.70;;;;;;5023749;28;20045;-77
2022/12/06 08:05:22;;;;;;;7.18;3.70;;;7.80;61.50;;;;;;5029681;28;20534;-77
2022/12/06 08:07:48;;;;;;;6.82;4.30;;;7.80;60.70;;;;;;5023652;28;20091;-79
2022/12/06 08:10:14;;;;;;;6.32;3.88;;;7.80;59.80;;;;;;5018427;28;20512;-78
2022/12/06 08:12:40;;;;;;;7.90;4.00;;;7.80;59.20;;;;;;5019269;28;20508;-79
2022/12/06 08:15:11;;;;;;;7.70;4.25;;;7.80;58.70;;;;;;5018893;28;20068;-79
2022/12/06 08:17:39;;;;;;;6.47;3.92;;;7.80;58.40;;;;;;5010151;28;20069;-78
2022/12/06 08:20:06;;;;;;;6.97;3.42;;;7.80;58.00;;;;;;5029727;28;20067;-78
2022/12/06 08:22:32;;;;;;;7.35;4.10;;;7.90;57.80;;;;;;5025540;28;20044;-78
2022/12/06 08:24:58;;;;;;;6.22;4.07;;;7.80;57.60;;;;;;5028863;28;20033;-77
2022/12/06 08:27:24;;;;;;;9.20;4.38;;;7.90;57.50;;;;;;5027466;28;20071;-78
2022/12/06 08:29:50;;;;;;;6.65;4.38;;;7.90;57.30;;;;;;5016181;28;20546;-77
2022/12/06 08:32:16;;;;;;;9.48;4.22;;;7.90;57.20;;;;;;5027109;28;20034;-77
2022/12/06 08:34:42;;;;;;;7.85;3.92;;;7.90;57.00;;;;;;5034209;28;20152;-77
2022/12/06 08:37:09;;;;;;;8.27;4.15;;;7.90;56.90;;;;;;5030058;28;20121;-77
2022/12/06 08:39:35;;;;;;;7.68;4.50;;;7.90;56.80;;;;;;5033323;28;20045;-77
2022/12/06 08:42:02;;;;;;;6.53;4.20;;;7.90;56.60;;;;;;5028398;28;20038;-78
2022/12/06 08:44:30;;;;;;;5.70;3.95;;;7.90;56.60;;;;;;5014843;28;20037;-77
2022/12/06 08:46:57;;;;;;;9.18;4.45;;;7.90;56.60;;;;;;5029954;28;20038;-76
2022/12/06 08:49:24;;;;;;;5.20;3.67;;;7.90;56.50;;;;;;5031893;28;20052;-78
2022/12/06 08:51:51;;;;;;;6.90;3.80;;;7.80;56.30;;;;;;5025396;28;20414;-79
2022/12/06 08:54:20;;;;;;;9.57;4.40;;;7.80;56.30;;;;;;5010144;28;20412;-76
2022/12/06 08:56:46;;;;;;;14.82;4.70;;;7.80;56.70;;;;;;5022206;28;20029;-77
2022/12/06 08:59:12;;;;;;;8.40;3.95;;;7.90;56.60;;;;;;5020885;28;20435;-77
2022/12/06 09:01:38;;;;;;;10.10;3.70;;;7.90;56.70;;;;;;5022444;28;20041;-77
2022/12/06 09:04:07;;;;;;;7.70;4.05;;;7.90;57.10;;;;;;5022013;28;20033;-76
2022/12/06 09:06:33;;;;;;;7.07;3.60;;;7.90;57.20;;;;;;5022129;28;20533;-76
2022/12/06 09:08:59;;;;;;;6.50;3.35;;;7.90;66.30;;;;;;5023986;28;20155;-76
2022/12/06 09:11:25;;;;;;;7.85;3.65;;;8.10;69.10;;;;;;5021652;28;20124;-76
2022/12/06 09:13:51;;;;;;;11.45;3.17;;;8.30;64.80;;;;;;5020763;28;20037;-77
2022/12/06 09:16:20;;;;;;;8.85;3.67;;;8.30;64.10;;;;;;5022314;28;20041;-77
2022/12/06 09:18:46;;;;;;;7.18;3.80;;;8.30;62.80;;;;;;5019285;28;20551;-75
2022/12/06 09:21:16;;;;;;;7.70;3.83;;;8.40;61.80;;;;;;5020075;28;20060;-77
2022/12/06 09:23:42;;;;;;;7.13;3.50;;;8.40;60.90;;;;;;5020948;28;20045;-76
2022/12/06 09:26:08;;;;;;;8.55;3.95;;;8.30;60.50;;;;;;5022847;28;20052;-76
2022/12/06 09:28:36;;;;;;;9.02;4.47;;;8.40;60.30;;;;;;5020626;28;20044;-76
2022/12/06 09:31:04;;;;;;;11.02;4.43;;;8.30;59.70;;;;;;5022346;28;20037;-76
2022/12/06 09:33:31;;;;;;;8.02;4.13;;;8.30;59.10;;;;;;5022861;28;20035;-76
2022/12/06 09:36:00;;;;;;;8.95;4.68;;;8.30;58.90;;;;;;5021934;28;20049;-75
2022/12/06 09:38:29;;;;;;;13.32;4.45;;;8.30;58.80;;;;;;5021408;28;20041;-77
2022/12/06 09:41:13;;;;;;;9.75;4.90;;;8.30;58.60;;;;;;5024017;28;20037;-74
2022/12/06 09:43:51;;;;;;;22.10;5.18;;;8.30;58.50;;;;;;5020563;28;20494;-75
2022/12/06 09:46:46;;;;;;;7.95;4.32;;;8.30;58.50;;;;;;5020367;28;20076;-76
2022/12/06 09:49:26;;;;;;;8.40;4.85;;;8.30;58.30;;;;;;5003004;28;20037;-75
2022/12/06 09:52:09;;;;;;;6.82;4.80;;;8.30;58.20;;;;;;5019826;28;20041;-75
2022/12/06 09:55:03;;;;;;;10.55;4.95;;;8.30;58.00;;;;;;5022188;28;20045;-75
2022/12/06 09:57:49;;;;;;;8.30;4.75;;;8.30;57.90;;;;;;5020338;28;20099;-74
2022/12/06 10:00:20;;;;;;;9.07;4.75;;;8.30;58.50;;;;;;5019856;28;20034;-75
2022/12/06 10:03:15;;;;;;;8.75;4.70;;;8.30;57.60;;;;;;5019813;28;20419;-74
2022/12/06 10:05:59;;;;;;;9.80;4.55;;;8.30;57.80;;;;;;5018431;28;20045;-74
2022/12/06 10:08:44;;;;;;;7.38;4.90;;;8.20;57.60;;;;;;5022791;28;20049;-75
2022/12/06 10:11:37;;;;;;;7.78;4.57;;;8.20;57.30;;;;;;5017230;28;20053;-74
2022/12/06 10:14:05;;;;;;;9.68;4.57;;;8.20;57.00;;;;;;5019535;28;20559;-75
2022/12/06 10:17:20;;;;;;;8.52;4.05;;;8.20;56.90;;;;;;5018918;28;20034;-76
2022/12/06 10:20:11;;;;;;;8.32;4.47;;;8.20;56.90;;;;;;4984045;28;20523;-75
2022/12/06 10:23:06;;;;;;;8.93;4.50;;;8.10;56.80;;;;;;5018850;28;20037;-75
2022/12/06 10:25:49;;;;;;;6.55;4.40;;;8.10;56.70;;;;;;5018333;28;20183;-76
2022/12/06 10:28:36;;;;;;;9.90;4.20;;;8.10;56.50;;;;;;5017584;28;20529;-75
2022/12/06 10:31:25;;;;;;;6.32;4.15;;;8.10;56.40;;;;;;5018443;28;20047;-75
2022/12/06 10:33:59;;;;;;;8.00;4.63;;;8.10;56.50;;;;;;5018002;28;20029;-76
2022/12/06 10:36:52;;;;;;;7.28;4.20;;;8.10;56.20;;;;;;5018355;28;20040;-75
2022/12/06 10:39:28;;;;;;;6.63;4.38;;;8.10;56.10;;;;;;5034972;28;20149;-75
2022/12/06 10:42:17;;;;;;;9.15;4.78;;;8.00;55.80;;;;;;5018354;28;20124;-75
2022/12/06 10:44:52;;;;;;;6.10;4.15;;;8.00;55.90;;;;;;5021631;28;20516;-75
2022/12/06 10:47:31;;;;;;;7.25;4.32;;;8.00;55.60;;;;;;5020042;28;20149;-75
2022/12/06 10:50:07;;;;;;;6.25;4.43;;;8.00;55.70;;;;;;5018087;28;20050;-76
2022/12/06 10:52:50;;;;;;;9.43;4.72;;;8.00;55.70;;;;;;5019847;28;20046;-76
2022/12/06 10:55:50;;;;;;;7.97;4.63;;;8.00;55.40;;;;;;5018335;28;20034;-76
2022/12/06 10:58:43;;;;;;;8.75;4.90;;;8.00;55.30;;;;;;5019119;28;20040;-76
2022/12/06 11:01:16;;;;;;;11.05;4.45;;;8.00;55.30;;;;;;5020317;28;20411;-76
2022/12/06 11:04:02;;;;;;;6.07;3.95;;;8.00;55.20;;;;;;5001411;28;20416;-76
2022/12/06 11:06:33;;;;;;;;;;;7.90;55.00;;;;;;5014726;28;20584;-75
2022/12/06 11:09:20;;;;;;;9.88;4.63;;;7.90;55.00;;;;;;5021748;28;19923;-74
2022/12/06 11:11:47;;;;;;;;;;;7.90;55.10;;;;;;5006517;28;20041;-75
2022/12/06 11:14:33;;;;;;;5.57;3.80;;;7.90;55.20;;;;;;5018355;28;19962;-77
2022/12/06 11:17:12;;;;;;;7.50;4.40;;;7.90;54.90;;;;;;5018737;28;20177;-76
2022/12/06 11:19:43;;;;;;;6.75;3.92;;;7.90;54.90;;;;;;5020866;28;20280;-75
2022/12/06 11:22:36;;;;;;;8.00;4.65;;;7.90;55.00;;;;;;5018736;28;20128;-75
2022/12/06 11:25:07;;;;;;;7.07;3.75;;;7.90;54.90;;;;;;5020331;28;20073;-74
2022/12/06 11:27:42;;;;;;;6.63;4.10;;;7.90;54.90;;;;;;5019504;28;20057;-75
2022/12/06 11:30:15;;;;;;;5.70;3.88;;;7.80;54.80;;;;;;5020177;28;20122;-75
2022/12/06 11:32:43;;;;;;;8.00;4.20;;;7.80;54.80;;;;;;5018636;28;20443;-74
2022/12/06 11:35:17;;;;;;;8.43;4.40;;;7.80;54.90;;;;;;5018213;28;20786;-75
2022/12/06 11:37:45;;;;;;;5.97;3.53;;;7.80;55.50;;;;;;5017944;28;20025;-76
2022/12/06 11:40:41;;;;;;;7.30;3.78;;;7.90;55.70;;;;;;5018395;28;20084;-75
2022/12/06 11:43:15;;;;;;;6.07;3.80;;;7.90;55.90;;;;;;5017360;28;20041;-75
2022/12/06 11:45:44;;;;;;;7.28;4.00;;;7.90;55.80;;;;;;5016419;28;20525;-76
2022/12/06 11:48:22;;;;;;;6.35;3.88;;;7.90;55.70;;;;;;5017618;28;20519;-75
2022/12/06 11:50:49;;;;;;;8.88;3.80;;;7.80;55.40;;;;;;5021871;28;20037;-75
2022/12/06 11:53:27;;;;;;;5.78;3.60;;;7.90;55.30;;;;;;5018637;28;20316;-75
2022/12/06 11:55:59;;;;;;;7.90;4.25;;;7.80;55.30;;;;;;5034034;28;20037;-75
2022/12/06 11:58:34;;;;;;;7.05;3.22;;;7.80;55.10;;;;;;5018748;28;20030;-75
2022/12/06 12:01:09;;;;;;;5.40;3.78;;;7.80;55.10;;;;;;5016434;28;20034;-74
2022/12/06 12:03:36;;;;;;;;;;;7.90;55.00;;;;;;5022789;28;20033;-74
2022/12/06 12:06:20;;;;;;;6.47;3.75;;;7.80;55.10;;;;;;5022815;28;20359;-75
2022/12/06 12:08:57;;;;;;;8.73;3.70;;;7.80;55.00;;;;;;5022026;28;20030;-75
2022/12/06 12:11:28;;;;;;;10.20;3.92;;;7.80;54.80;;;;;;5026917;28;20030;-79
2022/12/06 12:13:59;;;;;;;6.05;3.40;;;7.80;54.90;;;;;;5024539;28;20048;-76
2022/12/06 12:16:28;;;;;;;5.85;3.28;;;7.80;55.00;;;;;;5023578;28;20034;-77
2022/12/06 12:19:19;;;;;;;5.50;3.17;;;7.80;55.00;;;;;;5025207;28;20106;-78
2022/12/06 12:21:45;;;;;;;6.05;3.42;;;7.80;55.10;;;;;;5031792;28;20120;-79
2022/12/06 12:24:48;;;;;;;6.35;3.38;;;7.80;55.20;;;;;;5026930;28;20175;-78
2022/12/06 12:27:39;;;;;;;9.20;4.25;;;7.70;55.30;;;;;;5027132;28;20056;-79
2022/12/06 12:30:17;;;;;;;6.43;3.60;;;7.70;55.40;;;;;;5028379;28;20077;-78
2022/12/06 12:32:44;;;;;;;5.00;3.40;;;7.70;55.40;;;;;;5021673;28;20033;-79
2022/12/06 12:35:20;;;;;;;7.53;3.30;;;7.70;55.40;;;;;;5030863;28;20033;-76
2022/12/06 12:37:54;;;;;;;7.25;3.90;;;7.70;55.60;;;;;;5028677;28;20512;-77
2022/12/06 12:40:39;;;;;;;4.10;2.97;;;7.70;55.50;;;;;;5030881;28;20061;-76
2022/12/06 12:43:06;;;;;;;6.30;3.72;;;7.70;55.50;;;;;;5013371;28;20096;-78
2022/12/06 12:45:32;;;;;;;5.75;3.20;;;7.70;55.40;;;;;;5014591;28;20547;-77
2022/12/06 12:48:24;;;;;;;7.03;3.72;;;7.70;55.40;;;;;;5026813;28;20034;-78
2022/12/06 12:50:55;;;;;;;5.32;3.30;;;7.70;55.70;;;;;;5014850;28;20029;-78
2022/12/06 12:53:30;;;;;;;4.35;2.88;;;7.60;55.50;;;;;;5028605;28;20032;-79
2022/12/06 12:56:17;;;;;;;7.05;2.97;;;7.60;55.70;;;;;;5032150;28;20033;-79
2022/12/06 12:58:46;;;;;;;4.95;3.20;;;7.60;55.70;;;;;;5027186;28;20137;-78
2022/12/06 13:01:29;;;;;;;5.50;3.38;;;7.60;55.80;;;;;;5032586;28;20038;-78
2022/12/06 13:04:09;;;;;;;4.55;3.10;;;7.60;55.70;;;;;;5025207;28;20044;-78
2022/12/06 13:06:41;;;;;;;7.43;3.13;;;7.60;55.80;;;;;;5022101;28;20096;-77
2022/12/06 13:09:42;;;;;;;4.65;3.50;;;7.60;55.90;;;;;;5021446;28;20033;-77
2022/12/06 13:12:33;;;;;;;7.90;3.40;;;7.60;55.90;;;;;;5012355;28;20045;-76
2022/12/06 13:15:20;;;;;;;4.45;3.03;;;7.60;55.90;;;;;;5023941;28;20420;-82
2022/12/06 13:17:54;;;;;;;5.85;3.58;;;7.60;56.00;;;;;;5021682;28;20128;-78
2022/12/06 13:20:33;;;;;;;5.68;2.78;;;7.60;55.80;;;;;;5021904;28;20042;-78
2022/12/06 13:23:05;;;;;;;7.20;2.85;;;7.50;55.60;;;;;;5019661;28;20081;-78
2022/12/06 13:25:31;;;;;;;6.20;3.38;;;7.50;55.40;;;;;;5020334;28;20045;-78
2022/12/06 13:27:59;;;;;;;5.10;3.35;;;7.50;55.20;;;;;;5021063;28;20049;-77
2022/12/06 13:30:29;;;;;;;4.72;2.95;;;7.50;55.40;;;;;;5021768;28;20057;-77
2022/12/06 13:33:02;;;;;;;7.10;3.20;;;7.50;55.20;;;;;;5019924;28;20041;-77
2022/12/06 13:35:41;;;;;;;5.18;2.63;;;7.50;55.40;;;;;;5022196;28;20037;-76
2022/12/06 13:38:16;;;;;;;4.90;3.17;;;7.50;55.20;;;;;;5021014;28;20401;-78
2022/12/06 13:40:48;;;;;;;6.90;3.35;;;7.50;55.20;;;;;;5026465;28;20045;-77
2022/12/06 13:43:23;;;;;;;5.57;2.90;;;7.50;55.30;;;;;;5021024;28;20504;-75